createdAt,value
2022-08-09T00:06:18.689Z,6.57
2022-08-09T01:22:26.312Z,6.38
2022-08-09T01:32:50.421Z,5.60
2022-08-09T01:42:54.821Z,6.85
2022-08-09T01:52:58.879Z,6.30
2022-08-09T02:03:03.130Z,6.30
2022-08-09T02:13:09.665Z,6.57
2022-08-09T02:23:25.156Z,6.93
2022-08-09T02:34:07.529Z,8.35
2022-08-09T02:44:13.618Z,6.65
2022-08-09T03:04:37.780Z,7.43
2022-08-09T03:14:41.386Z,6.40
2022-08-09T03:24:52.373Z,8.73
2022-08-09T03:46:05.339Z,7.60
2022-08-09T04:42:23.422Z,8.90
2022-08-09T04:52:28.742Z,7.90
2022-08-09T05:02:32.593Z,7.13
2022-08-09T05:12:34.810Z,5.88
2022-08-09T05:23:55.605Z,7.32
2022-08-09T05:33:11.089Z,7.18
2022-08-09T05:43:15.981Z,8.70
2022-08-09T05:53:21.802Z,8.43
2022-08-09T06:03:44.251Z,5.68
2022-08-09T06:13:56.679Z,8.13
2022-08-09T06:24:02.330Z,4.80
2022-08-09T06:34:05.602Z,4.07
2022-08-09T06:44:09.286Z,3.92
2022-08-09T06:54:23.471Z,4.30
2022-08-09T07:04:28.385Z,3.35
2022-08-09T07:14:30.376Z,4.88
2022-08-09T07:24:40.588Z,3.25
2022-08-09T07:34:46.435Z,1.85
2022-08-09T07:44:52.453Z,2.42
2022-08-09T07:54:55.442Z,2.13
2022-08-09T08:04:59.583Z,2.05
2022-08-09T08:15:01.579Z,2.58
2022-08-09T08:25:04.241Z,2.25
2022-08-09T08:35:18.205Z,1.58
2022-08-09T08:45:37.085Z,2.55
2022-08-09T08:55:40.541Z,4.15
2022-08-09T09:05:58.603Z,3.15
2022-08-09T09:16:07.035Z,2.75
2022-08-09T09:26:12.286Z,1.70
2022-08-09T09:36:20.422Z,2.25
2022-08-09T09:46:51.654Z,1.73
2022-08-09T09:58:02.529Z,2.45
2022-08-09T10:07:25.239Z,2.13
2022-08-09T10:17:50.631Z,2.35
2022-08-09T10:27:58.364Z,1.42
2022-08-09T10:38:01.112Z,0.93
2022-08-09T10:48:20.299Z,2.60
2022-08-09T10:58:34.549Z,1.53
2022-08-09T11:08:47.417Z,1.65
2022-08-09T11:18:50.083Z,2.15
2022-08-09T11:28:57.052Z,1.70
2022-08-09T11:39:04.155Z,1.65
2022-08-09T11:49:09.638Z,4.10
2022-08-09T11:59:30.414Z,2.35
2022-08-09T12:09:36.350Z,1.15
2022-08-09T12:19:40.018Z,2.13
2022-08-09T12:30:00.039Z,1.55
2022-08-09T12:40:15.363Z,1.52
2022-08-09T12:50:20.007Z,1.60
2022-08-09T13:00:30.254Z,2.60
2022-08-09T13:10:34.581Z,2.10
2022-08-09T13:21:04.506Z,2.53
2022-08-09T13:32:15.154Z,1.83
2022-08-09T13:41:58.761Z,4.05
2022-08-09T13:52:09.028Z,6.88
2022-08-09T14:02:11.581Z,2.20
2022-08-09T14:12:34.967Z,2.57
2022-08-09T14:23:02.434Z,3.72
2022-08-09T14:33:14.122Z,2.15
2022-08-09T14:55:36.017Z,2.23
2022-08-09T15:17:47.297Z,2.30
2022-08-09T15:28:00.430Z,2.40
2022-08-09T15:38:11.717Z,1.60
2022-08-09T15:48:29.126Z,1.77
2022-08-09T15:58:32.941Z,3.10
2022-08-09T16:08:35.174Z,2.65
2022-08-09T16:18:47.642Z,2.10
2022-08-09T16:40:02.737Z,1.65
2022-08-09T16:50:31.486Z,2.30
2022-08-09T17:00:37.043Z,2.25
2022-08-09T17:11:02.453Z,3.38
2022-08-09T17:21:05.329Z,2.10
2022-08-09T17:31:20.953Z,2.80
2022-08-09T17:41:39.006Z,2.25
2022-08-09T17:51:41.587Z,2.63
2022-08-09T18:02:06.709Z,2.10
2022-08-09T18:12:17.259Z,2.03
2022-08-09T18:22:24.703Z,4.05
2022-08-09T18:32:27.180Z,2.60
2022-08-09T18:42:29.618Z,3.05
2022-08-09T18:52:35.093Z,2.97
2022-08-09T19:02:51.057Z,2.70
2022-08-09T19:12:59.241Z,3.50
2022-08-09T19:23:06.528Z,2.75
2022-08-09T21:35:12.590Z,5.40
2022-08-09T21:45:17.626Z,4.75
2022-08-09T21:55:20.394Z,5.20
2022-08-09T22:05:23.688Z,5.45
2022-08-09T22:15:40.384Z,7.80
2022-08-09T22:26:07.824Z,5.65
2022-08-09T22:36:05.025Z,6.90
2022-08-09T22:48:16.515Z,6.50
2022-08-09T22:56:34.504Z,6.40
2022-08-09T23:06:55.101Z,5.97
2022-08-09T23:17:09.881Z,6.68
2022-08-09T23:27:12.991Z,7.30
2022-08-09T23:37:14.922Z,6.28
2022-08-09T23:47:21.093Z,7.45
2022-08-09T23:57:23.054Z,5.35
